createdAt,value
2017-02-26T00:00:28.589Z,955.70
2017-02-26T00:01:17.354Z,955.69
2017-02-26T00:02:30.443Z,955.64
2017-02-26T00:03:39.313Z,955.60
2017-02-26T00:04:39.145Z,955.59
2017-02-26T00:05:40.164Z,955.58
2017-02-26T00:06:33.800Z,955.57
2017-02-26T00:07:44.536Z,955.57
2017-02-26T00:08:28.197Z,955.57
2017-02-26T00:09:34.192Z,955.52
2017-02-26T00:10:33.254Z,955.51
2017-02-26T00:11:39.789Z,955.50
2017-02-26T00:12:42.966Z,955.49
2017-02-26T00:13:39.094Z,955.48
2017-02-26T00:14:42.102Z,955.41
2017-02-26T00:15:43.899Z,955.44
2017-02-26T00:16:39.615Z,955.43
2017-02-26T00:17:38.351Z,955.41
2017-02-26T00:18:39.217Z,955.43
2017-02-26T00:19:39.701Z,955.41
2017-02-26T00:20:39.600Z,955.41
2017-02-26T00:21:40.757Z,955.36
2017-02-26T00:22:41.484Z,955.39
2017-02-26T00:23:39.211Z,955.39
2017-02-26T00:24:39.235Z,955.38
2017-02-26T00:25:38.863Z,955.33
2017-02-26T00:26:44.367Z,955.31
2017-02-26T00:27:43.338Z,955.29
2017-02-26T00:28:52.487Z,955.27
2017-02-26T00:29:38.872Z,955.26
2017-02-26T00:30:39.839Z,955.23
2017-02-26T00:31:48.943Z,955.22
2017-02-26T00:32:48.754Z,955.24
2017-02-26T00:33:45.447Z,955.28
2017-02-26T00:34:44.386Z,955.25
2017-02-26T00:35:44.373Z,955.22
2017-02-26T00:36:49.070Z,955.27
2017-02-26T00:37:43.625Z,955.21
2017-02-26T00:38:49.741Z,955.24
2017-02-26T00:39:49.590Z,955.24
2017-02-26T00:40:47.083Z,955.25
2017-02-26T00:41:37.111Z,955.24
2017-02-26T00:42:44.743Z,955.26
2017-02-26T00:43:39.756Z,955.24
2017-02-26T00:44:44.797Z,955.21
2017-02-26T00:45:39.642Z,955.22
2017-02-26T00:46:45.335Z,955.24
2017-02-26T00:47:43.972Z,955.20
2017-02-26T00:48:40.927Z,955.20
2017-02-26T00:49:46.386Z,955.20
2017-02-26T00:50:42.109Z,955.22
2017-02-26T00:51:39.084Z,955.21
2017-02-26T00:52:35.780Z,955.19
2017-02-26T00:53:40.297Z,955.18
2017-02-26T00:54:44.376Z,955.13
2017-02-26T00:55:44.626Z,955.18
2017-02-26T00:56:39.528Z,955.17
2017-02-26T00:57:40.199Z,955.18
2017-02-26T00:58:39.356Z,955.15
2017-02-26T00:59:45.191Z,955.15
2017-02-26T01:00:46.125Z,955.19
2017-02-26T01:01:42.526Z,955.17
2017-02-26T01:02:47.023Z,955.20
2017-02-26T01:04:19.787Z,955.16
2017-02-26T01:05:54.413Z,955.17
2017-02-26T01:06:53.432Z,955.17
2017-02-26T01:07:43.993Z,955.20
2017-02-26T01:08:57.409Z,955.18
2017-02-26T01:09:51.627Z,955.19
2017-02-26T01:11:03.299Z,955.15
2017-02-26T01:11:46.019Z,955.18
2017-02-26T01:12:42.359Z,955.18
2017-02-26T01:13:58.827Z,955.18
2017-02-26T01:14:39.144Z,955.17
2017-02-26T01:15:50.312Z,955.14
2017-02-26T01:16:48.639Z,955.10
2017-02-26T01:17:49.132Z,955.14
2017-02-26T01:18:44.618Z,955.11
2017-02-26T01:20:47.787Z,955.06
2017-02-26T01:21:47.717Z,955.04
2017-02-26T01:22:45.296Z,955.02
2017-02-26T01:23:43.266Z,954.94
2017-02-26T01:24:42.599Z,954.97
2017-02-26T01:25:42.812Z,955.05
2017-02-26T01:26:48.620Z,955.01
2017-02-26T01:27:40.502Z,955.03
2017-02-26T01:28:33.668Z,955.05
2017-02-26T01:29:39.416Z,955.06
2017-02-26T01:30:40.495Z,955.07
2017-02-26T01:31:44.674Z,955.02
2017-02-26T01:32:34.113Z,955.03
2017-02-26T01:33:47.941Z,955.03
2017-02-26T01:34:38.117Z,955.07
2017-02-26T01:35:44.269Z,954.99
2017-02-26T01:36:39.194Z,954.98
2017-02-26T01:37:40.185Z,954.99
2017-02-26T01:38:42.104Z,954.97
2017-02-26T01:39:43.131Z,954.93
2017-02-26T01:40:48.425Z,954.91
2017-02-26T01:41:37.456Z,954.93
2017-02-26T01:42:47.785Z,954.94
2017-02-26T01:43:44.341Z,954.98
2017-02-26T01:44:46.140Z,954.92
2017-02-26T01:45:43.716Z,954.89
2017-02-26T01:46:46.835Z,954.90
2017-02-26T01:47:53.490Z,954.89
2017-02-26T01:48:38.695Z,954.93
2017-02-26T01:49:39.579Z,954.92
2017-02-26T01:50:47.512Z,954.92
2017-02-26T01:51:47.273Z,954.90
2017-02-26T01:52:43.167Z,954.88
2017-02-26T01:53:43.730Z,954.88
2017-02-26T01:54:43.124Z,954.88
2017-02-26T01:55:43.235Z,954.91
2017-02-26T01:56:50.582Z,954.91
2017-02-26T01:57:40.238Z,954.91
2017-02-26T01:58:43.782Z,954.90
2017-02-26T01:59:40.218Z,954.91
2017-02-26T02:00:43.875Z,954.90
2017-02-26T02:01:46.826Z,954.90
2017-02-26T02:02:44.258Z,954.88
2017-02-26T02:03:43.399Z,954.90
2017-02-26T02:04:38.829Z,954.89
2017-02-26T02:05:27.213Z,954.90
2017-02-26T02:06:13.973Z,954.85
2017-02-26T02:07:17.159Z,954.80
2017-02-26T02:08:17.868Z,954.87
2017-02-26T02:09:26.182Z,954.89
2017-02-26T02:10:27.452Z,954.89
2017-02-26T02:11:33.013Z,954.88
2017-02-26T02:12:20.449Z,954.88
2017-02-26T02:13:18.096Z,954.91
2017-02-26T02:14:32.172Z,954.91
2017-02-26T02:15:21.942Z,954.97
2017-02-26T02:16:25.018Z,954.95
2017-02-26T02:17:13.007Z,954.98
2017-02-26T02:18:22.108Z,954.98
2017-02-26T02:19:22.106Z,954.96
2017-02-26T02:20:31.422Z,954.98
2017-02-26T02:21:22.959Z,955.00
2017-02-26T02:22:29.064Z,955.00
2017-02-26T02:23:32.892Z,954.98
2017-02-26T02:24:27.180Z,955.01
2017-02-26T02:25:27.115Z,954.99
2017-02-26T02:26:28.000Z,955.05
2017-02-26T02:27:21.826Z,955.04
2017-02-26T02:28:26.383Z,955.03
2017-02-26T02:29:31.124Z,954.99
2017-02-26T02:30:19.955Z,954.97
2017-02-26T02:31:25.322Z,954.98
2017-02-26T02:32:26.595Z,954.98
2017-02-26T02:33:26.974Z,955.02
2017-02-26T02:34:21.181Z,955.02
2017-02-26T02:35:43.528Z,954.97
2017-02-26T02:36:40.285Z,955.01
2017-02-26T02:37:34.024Z,954.98
2017-02-26T02:38:44.180Z,954.96
2017-02-26T02:39:34.226Z,954.96
2017-02-26T02:40:36.583Z,954.95
2017-02-26T02:41:44.720Z,954.94
2017-02-26T02:42:38.936Z,954.97
2017-02-26T02:43:39.774Z,954.95
2017-02-26T02:44:40.110Z,954.98
2017-02-26T02:45:33.261Z,954.96
2017-02-26T02:46:39.925Z,954.97
2017-02-26T02:47:39.791Z,954.95
2017-02-26T02:48:44.593Z,954.99
2017-02-26T02:49:47.319Z,954.94
2017-02-26T02:50:39.971Z,954.96
2017-02-26T02:51:44.997Z,954.91
2017-02-26T02:52:48.008Z,954.93
2017-02-26T02:53:39.711Z,954.90
2017-02-26T02:54:39.806Z,954.90
2017-02-26T02:55:38.867Z,954.85
2017-02-26T02:56:39.639Z,954.91
2017-02-26T02:57:44.021Z,954.90
2017-02-26T02:58:43.891Z,954.90
2017-02-26T02:59:48.049Z,954.93
2017-02-26T03:00:43.801Z,954.93
2017-02-26T03:01:38.308Z,954.88
2017-02-26T03:02:38.336Z,954.94
2017-02-26T03:03:44.072Z,954.94
2017-02-26T03:04:44.753Z,954.94
2017-02-26T03:05:34.073Z,954.96
2017-02-26T03:06:59.201Z,954.92
2017-02-26T03:07:43.071Z,954.92
2017-02-26T03:08:44.502Z,954.94
2017-02-26T03:09:40.276Z,954.88
2017-02-26T03:10:44.606Z,954.87
2017-02-26T03:11:44.910Z,954.89
2017-02-26T03:12:49.183Z,954.89
2017-02-26T03:13:44.152Z,954.88
2017-02-26T03:14:45.295Z,954.88
2017-02-26T03:15:39.223Z,954.93
2017-02-26T03:16:44.232Z,954.90
2017-02-26T03:17:43.615Z,954.93
2017-02-26T03:18:49.121Z,954.92
2017-02-26T03:19:37.800Z,954.92
2017-02-26T03:20:39.358Z,954.92
2017-02-26T03:21:43.930Z,954.87
2017-02-26T03:22:44.660Z,954.91
2017-02-26T03:23:48.752Z,954.93
2017-02-26T03:24:49.214Z,954.96
2017-02-26T03:25:39.633Z,954.98
2017-02-26T03:26:38.086Z,955.01
2017-02-26T03:27:40.023Z,955.05
2017-02-26T03:28:44.255Z,954.99
2017-02-26T03:29:43.110Z,954.95
2017-02-26T03:30:39.634Z,954.99
2017-02-26T03:31:43.668Z,954.97
2017-02-26T03:32:39.017Z,954.99
2017-02-26T03:33:45.857Z,954.98
2017-02-26T03:34:47.767Z,954.97
2017-02-26T03:35:28.179Z,955.01
2017-02-26T03:36:32.543Z,954.98
2017-02-26T03:37:22.135Z,954.97
2017-02-26T03:38:23.066Z,954.96
2017-02-26T03:39:28.804Z,955.02
2017-02-26T03:40:28.258Z,954.96
2017-02-26T03:41:27.472Z,955.01
2017-02-26T03:42:27.461Z,954.97
2017-02-26T03:43:25.907Z,955.01
2017-02-26T03:44:29.143Z,954.99
2017-02-26T03:45:19.069Z,954.97
2017-02-26T03:46:23.346Z,954.94
2017-02-26T03:47:20.647Z,954.95
2017-02-26T03:48:20.874Z,954.99
2017-02-26T03:49:17.215Z,955.00
2017-02-26T03:50:28.505Z,954.94
2017-02-26T03:51:27.643Z,954.94
2017-02-26T03:52:33.730Z,954.95
2017-02-26T03:53:27.529Z,954.93
2017-02-26T03:54:21.482Z,954.95
2017-02-26T03:55:21.899Z,954.94
2017-02-26T03:56:18.573Z,954.94
2017-02-26T03:57:18.595Z,954.91
2017-02-26T03:58:38.878Z,954.93
2017-02-26T03:59:54.988Z,954.85
2017-02-26T04:00:44.585Z,954.88
2017-02-26T04:01:58.434Z,954.90
2017-02-26T04:02:48.033Z,954.85
2017-02-26T04:03:45.409Z,954.86
2017-02-26T04:04:39.674Z,954.78
2017-02-26T04:05:51.603Z,954.80
2017-02-26T04:06:39.361Z,954.77
2017-02-26T04:07:48.491Z,954.76
2017-02-26T04:08:39.600Z,954.76
2017-02-26T04:09:44.454Z,954.78
2017-02-26T04:10:44.288Z,954.74
2017-02-26T04:11:39.769Z,954.73
2017-02-26T04:12:44.946Z,954.74
2017-02-26T04:13:44.460Z,954.73
2017-02-26T04:14:49.664Z,954.69
2017-02-26T04:15:36.237Z,954.72
2017-02-26T04:16:47.298Z,954.66
2017-02-26T04:17:46.394Z,954.67
2017-02-26T04:18:48.809Z,954.67
2017-02-26T04:19:39.930Z,954.70
2017-02-26T04:20:44.621Z,954.70
2017-02-26T04:21:39.584Z,954.70
2017-02-26T04:22:47.036Z,954.77
2017-02-26T04:23:48.151Z,954.75
2017-02-26T04:24:48.705Z,954.79
2017-02-26T04:25:40.055Z,954.78
2017-02-26T04:26:44.889Z,954.76
2017-02-26T04:27:44.458Z,954.73
2017-02-26T04:28:44.602Z,954.76
2017-02-26T04:29:41.133Z,954.72
2017-02-26T04:30:43.212Z,954.70
2017-02-26T04:31:43.112Z,954.69
2017-02-26T04:32:43.658Z,954.67
2017-02-26T04:33:39.770Z,954.71
2017-02-26T04:34:44.300Z,954.67
2017-02-26T04:35:39.918Z,954.68
2017-02-26T04:36:43.786Z,954.71
2017-02-26T04:37:44.888Z,954.66
2017-02-26T04:38:49.511Z,954.65
2017-02-26T04:39:48.675Z,954.66
2017-02-26T04:40:35.214Z,954.69
2017-02-26T04:41:39.912Z,954.69
2017-02-26T04:42:48.264Z,954.71
2017-02-26T04:43:48.228Z,954.70
2017-02-26T04:44:39.841Z,954.72
2017-02-26T04:45:49.201Z,954.74
2017-02-26T04:46:48.211Z,954.74
2017-02-26T04:47:48.730Z,954.71
2017-02-26T04:48:38.104Z,954.70
2017-02-26T04:49:44.769Z,954.69
2017-02-26T04:50:39.604Z,954.71
2017-02-26T04:51:39.628Z,954.72
2017-02-26T04:52:51.172Z,954.72
2017-02-26T04:53:50.231Z,954.70
2017-02-26T04:54:37.763Z,954.68
2017-02-26T04:55:49.902Z,954.68
2017-02-26T04:56:48.740Z,954.69
2017-02-26T04:57:39.055Z,954.68
2017-02-26T04:58:39.553Z,954.68
2017-02-26T04:59:27.769Z,954.69
2017-02-26T05:00:27.209Z,954.69
2017-02-26T05:01:27.999Z,954.74
2017-02-26T05:02:16.795Z,954.70
2017-02-26T05:03:25.624Z,954.73
2017-02-26T05:04:22.501Z,954.72
2017-02-26T05:05:27.879Z,954.69
2017-02-26T05:06:43.562Z,954.69
2017-02-26T05:07:47.329Z,954.70
2017-02-26T05:08:44.865Z,954.69
2017-02-26T05:09:49.317Z,954.67
2017-02-26T05:10:44.131Z,954.65
2017-02-26T05:11:40.309Z,954.72
2017-02-26T05:12:40.258Z,954.66
2017-02-26T05:13:45.370Z,954.64
2017-02-26T05:14:42.206Z,954.67
2017-02-26T05:16:00.319Z,954.64
2017-02-26T05:16:48.950Z,954.67
2017-02-26T05:17:48.115Z,954.66
2017-02-26T05:18:49.067Z,954.62
2017-02-26T05:19:45.439Z,954.63
2017-02-26T05:20:47.516Z,954.64
2017-02-26T05:21:42.022Z,954.60
2017-02-26T05:22:49.767Z,954.62
2017-02-26T05:23:39.459Z,954.60
2017-02-26T05:24:49.577Z,954.59
2017-02-26T05:25:49.340Z,954.60
2017-02-26T05:26:57.017Z,954.60
2017-02-26T05:27:48.056Z,954.62
2017-02-26T05:28:58.618Z,954.62
2017-02-26T05:29:42.400Z,954.61
2017-02-26T05:30:43.555Z,954.63
2017-02-26T05:31:45.112Z,954.63
2017-02-26T05:32:38.878Z,954.61
2017-02-26T05:33:35.975Z,954.57
2017-02-26T05:34:53.574Z,954.60
2017-02-26T05:35:43.644Z,954.60
2017-02-26T05:36:50.202Z,954.62
2017-02-26T05:37:46.532Z,954.61
2017-02-26T05:38:50.382Z,954.60
2017-02-26T05:39:38.889Z,954.61
2017-02-26T05:40:44.622Z,954.63
2017-02-26T05:41:39.473Z,954.63
2017-02-26T05:42:37.614Z,954.60
2017-02-26T05:43:40.439Z,954.64
2017-02-26T05:44:49.092Z,954.61
2017-02-26T05:45:52.937Z,954.65
2017-02-26T05:46:47.690Z,954.64
2017-02-26T05:47:45.048Z,954.63
2017-02-26T05:48:43.083Z,954.62
2017-02-26T05:49:47.846Z,954.67
2017-02-26T05:50:51.909Z,954.66
2017-02-26T05:51:44.554Z,954.65
2017-02-26T05:52:46.004Z,954.68
2017-02-26T05:53:57.582Z,954.75
2017-02-26T05:54:46.085Z,954.72
2017-02-26T05:55:46.346Z,954.74
2017-02-26T05:56:40.013Z,954.74
2017-02-26T05:57:47.229Z,954.73
2017-02-26T05:58:47.381Z,954.72
2017-02-26T05:59:40.214Z,954.77
2017-02-26T06:00:48.416Z,954.81
2017-02-26T06:01:39.291Z,954.79
2017-02-26T06:02:51.574Z,954.76
2017-02-26T06:03:44.440Z,954.75
2017-02-26T06:04:44.887Z,954.78
2017-02-26T06:05:44.313Z,954.75
2017-02-26T06:06:38.188Z,954.67
2017-02-26T06:07:22.031Z,954.74
2017-02-26T06:08:27.112Z,954.70
2017-02-26T06:09:27.486Z,954.71
2017-02-26T06:10:27.037Z,954.70
2017-02-26T06:11:26.092Z,954.71
2017-02-26T06:12:33.624Z,954.74
2017-02-26T06:13:18.093Z,954.75
2017-02-26T06:14:22.329Z,954.76
2017-02-26T06:15:22.101Z,954.77
2017-02-26T06:16:32.744Z,954.75
2017-02-26T06:17:28.558Z,954.80
2017-02-26T06:18:22.526Z,954.82
2017-02-26T06:19:30.144Z,954.81
2017-02-26T06:20:27.714Z,954.79
2017-02-26T06:21:27.447Z,954.83
2017-02-26T06:22:27.397Z,954.83
2017-02-26T06:23:22.333Z,954.85
2017-02-26T06:24:25.134Z,954.86
2017-02-26T06:25:26.953Z,954.89
2017-02-26T06:26:13.076Z,954.89
2017-02-26T06:27:44.218Z,954.87
2017-02-26T06:28:49.279Z,954.87
2017-02-26T06:29:37.239Z,954.88
2017-02-26T06:30:38.089Z,954.93
2017-02-26T06:31:44.560Z,954.95
2017-02-26T06:32:39.068Z,954.95
2017-02-26T06:33:43.616Z,954.95
2017-02-26T06:34:43.426Z,954.92
2017-02-26T06:35:39.988Z,954.97
2017-02-26T06:37:21.748Z,954.98
2017-02-26T06:37:49.473Z,954.99
2017-02-26T06:38:40.062Z,955.05
2017-02-26T06:39:49.575Z,955.04
2017-02-26T06:40:39.190Z,955.01
2017-02-26T06:41:49.756Z,955.03
2017-02-26T06:42:47.381Z,955.10
2017-02-26T06:44:01.826Z,955.05
2017-02-26T06:44:38.962Z,955.08
2017-02-26T06:45:49.211Z,955.08
2017-02-26T06:46:40.285Z,955.08
2017-02-26T06:47:49.205Z,955.12
2017-02-26T06:48:44.874Z,955.10
2017-02-26T06:49:39.878Z,955.10
2017-02-26T06:50:48.896Z,955.09
2017-02-26T06:51:58.336Z,955.12
2017-02-26T06:52:51.890Z,955.12
2017-02-26T06:53:44.481Z,955.13
2017-02-26T06:54:49.975Z,955.13
2017-02-26T06:55:43.767Z,955.12
2017-02-26T06:56:48.359Z,955.14
2017-02-26T06:57:47.612Z,955.15
2017-02-26T06:58:45.773Z,955.14
2017-02-26T06:59:51.894Z,955.09
2017-02-26T07:00:44.348Z,955.09
2017-02-26T07:01:45.200Z,955.13
2017-02-26T07:02:45.723Z,955.15
2017-02-26T07:03:40.075Z,955.15
2017-02-26T07:04:44.717Z,955.19
2017-02-26T07:06:00.906Z,955.17
2017-02-26T07:06:39.563Z,955.19
2017-02-26T07:07:43.377Z,955.16
2017-02-26T07:08:47.349Z,955.15
2017-02-26T07:09:39.030Z,955.15
2017-02-26T07:10:39.958Z,955.13
2017-02-26T07:11:48.248Z,955.14
2017-02-26T07:12:44.329Z,955.14
2017-02-26T07:13:45.335Z,955.15
2017-02-26T07:14:44.868Z,955.13
2017-02-26T07:15:43.373Z,955.16
2017-02-26T07:16:39.278Z,955.14
2017-02-26T07:17:44.292Z,955.10
2017-02-26T07:18:48.344Z,955.12
2017-02-26T07:19:39.648Z,955.13
2017-02-26T07:20:44.190Z,955.18
2017-02-26T07:21:40.126Z,955.15
2017-02-26T07:22:49.348Z,955.15
2017-02-26T07:23:40.067Z,955.17
2017-02-26T07:24:42.643Z,955.15
2017-02-26T07:25:40.288Z,955.14
2017-02-26T07:26:47.374Z,955.07
2017-02-26T07:27:38.678Z,955.05
2017-02-26T07:28:27.933Z,955.07
2017-02-26T07:29:27.193Z,955.09
2017-02-26T07:30:33.120Z,955.06
2017-02-26T07:31:22.075Z,955.09
2017-02-26T07:32:27.600Z,955.07
2017-02-26T07:33:26.120Z,955.09
2017-02-26T07:34:34.551Z,955.09
2017-02-26T07:35:24.105Z,955.10
2017-02-26T07:36:26.411Z,955.07
2017-02-26T07:37:39.292Z,955.04
2017-02-26T07:38:46.272Z,955.08
2017-02-26T07:39:44.076Z,955.05
2017-02-26T07:40:46.950Z,955.09
2017-02-26T07:41:39.399Z,955.08
2017-02-26T07:42:43.855Z,954.99
2017-02-26T07:43:48.788Z,955.02
2017-02-26T07:45:06.283Z,955.05
2017-02-26T07:45:40.145Z,955.01
2017-02-26T07:46:39.117Z,955.06
2017-02-26T07:47:34.593Z,955.11
2017-02-26T07:48:59.389Z,955.08
2017-02-26T07:49:43.021Z,955.12
2017-02-26T07:50:39.306Z,955.14
2017-02-26T07:51:45.202Z,955.12
2017-02-26T07:52:49.002Z,955.13
2017-02-26T07:53:43.867Z,955.14
2017-02-26T07:54:37.707Z,955.17
2017-02-26T07:55:44.552Z,955.18
2017-02-26T07:56:44.504Z,955.20
2017-02-26T07:57:43.757Z,955.19
2017-02-26T07:58:47.168Z,955.17
2017-02-26T07:59:49.501Z,955.22
2017-02-26T08:00:44.078Z,955.26
2017-02-26T08:01:42.445Z,955.26
2017-02-26T08:02:45.106Z,955.28
2017-02-26T08:03:42.050Z,955.29
2017-02-26T08:04:51.499Z,955.25
2017-02-26T08:05:43.313Z,955.29
2017-02-26T08:06:47.987Z,955.32
2017-02-26T08:07:44.843Z,955.31
2017-02-26T08:08:44.505Z,955.30
2017-02-26T08:09:50.212Z,955.33
2017-02-26T08:10:39.193Z,955.33
2017-02-26T08:12:04.706Z,955.33
2017-02-26T08:12:49.306Z,955.34
2017-02-26T08:13:43.607Z,955.33
2017-02-26T08:14:43.831Z,955.33
2017-02-26T08:15:39.634Z,955.38
2017-02-26T08:16:39.460Z,955.38
2017-02-26T08:17:48.987Z,955.36
2017-02-26T08:18:46.503Z,955.36
2017-02-26T08:19:52.071Z,955.38
2017-02-26T08:20:49.117Z,955.33
2017-02-26T08:21:45.031Z,955.37
2017-02-26T08:22:50.248Z,955.35
2017-02-26T08:23:56.015Z,955.42
2017-02-26T08:24:39.509Z,955.42
2017-02-26T08:25:52.543Z,955.43
2017-02-26T08:26:38.416Z,955.40
2017-02-26T08:27:52.490Z,955.41
2017-02-26T08:28:37.770Z,955.45
2017-02-26T08:29:44.852Z,955.48
2017-02-26T08:30:46.304Z,955.48
2017-02-26T08:31:40.375Z,955.48
2017-02-26T08:32:59.478Z,955.52
2017-02-26T08:33:48.005Z,955.52
2017-02-26T08:34:43.925Z,955.52
2017-02-26T08:35:44.682Z,955.52
2017-02-26T08:36:43.633Z,955.53
2017-02-26T08:37:40.231Z,955.51
2017-02-26T08:38:26.912Z,955.53
2017-02-26T08:39:28.558Z,955.52
2017-02-26T08:40:25.460Z,955.53
2017-02-26T08:41:25.481Z,955.52
2017-02-26T08:42:27.525Z,955.56
2017-02-26T08:43:27.603Z,955.52
2017-02-26T08:44:27.285Z,955.53
2017-02-26T08:45:28.282Z,955.49
2017-02-26T08:46:22.024Z,955.52
2017-02-26T08:47:24.862Z,955.47
2017-02-26T08:48:29.149Z,955.54
2017-02-26T08:49:27.506Z,955.52
2017-02-26T08:50:31.404Z,955.55
2017-02-26T08:51:27.464Z,955.55
2017-02-26T08:52:34.808Z,955.54
2017-02-26T08:53:27.906Z,955.62
2017-02-26T08:54:34.159Z,955.61
2017-02-26T08:55:34.985Z,955.64
2017-02-26T08:56:28.064Z,955.65
2017-02-26T08:57:21.682Z,955.59
2017-02-26T08:58:27.274Z,955.66
2017-02-26T08:59:16.576Z,955.68
2017-02-26T09:00:39.683Z,955.69
2017-02-26T09:01:41.097Z,955.65
2017-02-26T09:02:41.851Z,955.69
2017-02-26T09:03:42.213Z,955.66
2017-02-26T09:04:46.326Z,955.66
2017-02-26T09:05:39.870Z,955.67
2017-02-26T09:06:47.409Z,955.70
2017-02-26T09:07:44.810Z,955.73
2017-02-26T09:08:44.521Z,955.73
2017-02-26T09:09:40.815Z,955.74
2017-02-26T09:10:40.200Z,955.75
2017-02-26T09:11:34.323Z,955.77
2017-02-26T09:12:39.154Z,955.75
2017-02-26T09:13:45.141Z,955.75
2017-02-26T09:14:45.378Z,955.81
2017-02-26T09:15:40.269Z,955.79
2017-02-26T09:16:42.601Z,955.79
2017-02-26T09:17:39.941Z,955.79
2017-02-26T09:19:24.681Z,955.83
2017-02-26T09:19:47.972Z,955.88
2017-02-26T09:20:38.079Z,955.83
2017-02-26T09:22:00.001Z,955.85
2017-02-26T09:22:49.064Z,955.82
2017-02-26T09:23:39.633Z,955.88
2017-02-26T09:24:44.212Z,955.88
2017-02-26T09:25:43.177Z,955.92
2017-02-26T09:26:49.563Z,955.91
2017-02-26T09:27:44.461Z,955.85
2017-02-26T09:28:39.060Z,955.91
2017-02-26T09:29:44.781Z,955.93
2017-02-26T09:30:49.657Z,955.95
2017-02-26T09:31:42.220Z,955.95
2017-02-26T09:32:41.827Z,955.92
2017-02-26T09:33:49.375Z,955.85
2017-02-26T09:34:44.919Z,955.87
2017-02-26T09:35:44.579Z,955.87
2017-02-26T09:36:45.336Z,955.86
2017-02-26T09:37:45.224Z,955.86
2017-02-26T09:38:38.734Z,955.78
2017-02-26T09:39:49.251Z,955.82
2017-02-26T09:40:40.121Z,955.80
2017-02-26T09:42:04.061Z,955.81
2017-02-26T09:42:51.683Z,955.82
2017-02-26T09:43:43.580Z,955.84
2017-02-26T09:44:43.571Z,955.84
2017-02-26T09:45:40.931Z,955.86
2017-02-26T09:46:46.973Z,955.89
2017-02-26T09:47:47.891Z,955.85
2017-02-26T09:48:42.640Z,955.87
2017-02-26T09:49:39.639Z,955.86
2017-02-26T09:50:41.833Z,955.83
2017-02-26T09:51:50.877Z,955.85
2017-02-26T09:52:49.172Z,955.83
2017-02-26T09:53:50.048Z,955.83
2017-02-26T09:55:33.300Z,955.79
2017-02-26T09:56:46.956Z,955.82
2017-02-26T09:57:47.824Z,955.80
2017-02-26T09:58:42.569Z,955.86
2017-02-26T09:59:40.317Z,955.83
2017-02-26T10:00:39.108Z,955.82
2017-02-26T10:01:18.665Z,955.82
2017-02-26T10:02:22.251Z,955.82
2017-02-26T10:03:27.479Z,955.83
2017-02-26T10:04:27.114Z,955.79
2017-02-26T10:05:22.621Z,955.80
2017-02-26T10:06:27.465Z,955.80
2017-02-26T10:07:21.805Z,955.81
2017-02-26T10:08:37.916Z,955.79
2017-02-26T10:09:26.060Z,955.79
2017-02-26T10:10:45.275Z,955.79
2017-02-26T10:11:38.304Z,955.75
2017-02-26T10:12:49.635Z,955.74
2017-02-26T10:13:38.630Z,955.77
2017-02-26T10:14:43.000Z,955.71
2017-02-26T10:15:39.518Z,955.72
2017-02-26T10:16:49.601Z,955.79
2017-02-26T10:17:44.171Z,955.75
2017-02-26T10:18:49.996Z,955.70
2017-02-26T10:19:45.309Z,955.73
2017-02-26T10:20:39.810Z,955.71
2017-02-26T10:21:39.798Z,955.70
2017-02-26T10:22:38.890Z,955.72
2017-02-26T10:23:53.670Z,955.71
2017-02-26T10:24:51.952Z,955.66
2017-02-26T10:25:46.350Z,955.67
2017-02-26T10:27:00.857Z,955.65
2017-02-26T10:27:43.410Z,955.61
2017-02-26T10:29:46.299Z,955.63
2017-02-26T10:29:57.850Z,955.59
2017-02-26T10:30:57.672Z,955.61
2017-02-26T10:31:38.456Z,955.58
2017-02-26T10:32:38.912Z,955.60
2017-02-26T10:33:43.331Z,955.56
2017-02-26T10:34:44.182Z,955.60
2017-02-26T10:35:53.543Z,955.57
2017-02-26T10:36:48.426Z,955.60
2017-02-26T10:37:34.340Z,955.60
2017-02-26T10:38:46.601Z,955.58
2017-02-26T10:39:59.187Z,955.51
2017-02-26T10:40:47.806Z,955.47
2017-02-26T10:41:40.731Z,955.48
2017-02-26T10:42:49.698Z,955.42
2017-02-26T10:43:43.972Z,955.38
2017-02-26T10:44:39.079Z,955.33
2017-02-26T10:45:33.574Z,955.28
2017-02-26T10:46:44.665Z,955.26
2017-02-26T10:47:45.861Z,955.27
2017-02-26T10:48:39.112Z,955.31
2017-02-26T10:49:44.613Z,955.27
2017-02-26T10:50:44.620Z,955.24
2017-02-26T10:51:47.520Z,955.26
2017-02-26T10:52:44.840Z,955.25
2017-02-26T10:53:45.159Z,955.22
2017-02-26T10:54:39.934Z,955.23
2017-02-26T10:55:44.140Z,955.22
2017-02-26T10:56:34.122Z,955.20
2017-02-26T10:57:39.513Z,955.12
2017-02-26T10:58:57.506Z,955.14
2017-02-26T10:59:41.149Z,955.16
2017-02-26T11:00:44.900Z,955.11
2017-02-26T11:01:51.045Z,955.06
2017-02-26T11:02:44.152Z,955.01
2017-02-26T11:03:55.758Z,954.98
2017-02-26T11:04:44.629Z,955.01
2017-02-26T11:05:45.613Z,954.96
2017-02-26T11:06:50.032Z,954.98
2017-02-26T11:07:47.648Z,954.96
2017-02-26T11:08:42.657Z,954.95
2017-02-26T11:09:56.923Z,954.95
2017-02-26T11:10:40.440Z,954.90
2017-02-26T11:11:45.106Z,954.94
2017-02-26T11:12:40.718Z,954.92
2017-02-26T11:13:54.146Z,954.93
2017-02-26T11:14:42.020Z,954.87
2017-02-26T11:16:05.863Z,954.87
2017-02-26T11:16:39.874Z,954.80
2017-02-26T11:17:44.420Z,954.82
2017-02-26T11:18:46.927Z,954.80
2017-02-26T11:19:38.642Z,954.78
2017-02-26T11:20:39.626Z,954.74
2017-02-26T11:21:43.106Z,954.82
2017-02-26T11:22:52.359Z,954.78
2017-02-26T11:23:54.041Z,954.76
2017-02-26T11:24:49.811Z,954.76
2017-02-26T11:25:34.726Z,954.76
2017-02-26T11:26:44.964Z,954.75
2017-02-26T11:27:43.279Z,954.71
2017-02-26T11:28:43.421Z,954.69
2017-02-26T11:29:50.179Z,954.65
2017-02-26T11:30:34.648Z,954.67
2017-02-26T11:31:39.984Z,954.68
2017-02-26T11:32:39.619Z,954.64
2017-02-26T11:33:49.047Z,954.64
2017-02-26T11:34:48.400Z,954.62
2017-02-26T11:35:49.109Z,954.62
2017-02-26T11:36:43.844Z,954.57
2017-02-26T11:37:38.793Z,954.56
2017-02-26T11:38:27.079Z,954.51
2017-02-26T11:39:27.410Z,954.46
2017-02-26T11:40:32.153Z,954.51
2017-02-26T11:41:17.063Z,954.43
2017-02-26T11:42:28.527Z,954.40
2017-02-26T11:43:27.648Z,954.43
2017-02-26T11:44:26.701Z,954.40
2017-02-26T11:45:18.959Z,954.42
2017-02-26T11:46:35.104Z,954.36
2017-02-26T11:47:34.048Z,954.35
2017-02-26T11:48:38.157Z,954.30
2017-02-26T11:49:45.502Z,954.28
2017-02-26T11:50:49.111Z,954.28
2017-02-26T11:51:46.078Z,954.21
2017-02-26T11:52:49.822Z,954.23
2017-02-26T11:53:44.309Z,954.20
2017-02-26T11:54:56.871Z,954.21
2017-02-26T11:55:46.228Z,954.20
2017-02-26T11:56:59.547Z,954.21
2017-02-26T11:57:47.763Z,954.19
2017-02-26T11:58:47.830Z,954.16
2017-02-26T11:59:43.503Z,954.15
2017-02-26T12:00:47.749Z,954.13
2017-02-26T12:01:37.764Z,954.11
2017-02-26T12:02:45.191Z,954.08
2017-02-26T12:03:48.479Z,954.12
2017-02-26T12:04:45.414Z,954.06
2017-02-26T12:05:57.902Z,954.11
2017-02-26T12:06:47.941Z,954.15
2017-02-26T12:07:46.279Z,954.00
2017-02-26T12:08:58.412Z,954.05
2017-02-26T12:09:47.218Z,954.07
2017-02-26T12:10:44.025Z,954.05
2017-02-26T12:11:39.202Z,954.03
2017-02-26T12:12:44.226Z,953.98
2017-02-26T12:13:39.672Z,953.98
2017-02-26T12:14:49.433Z,953.99
2017-02-26T12:15:49.373Z,953.95
2017-02-26T12:16:54.341Z,954.02
2017-02-26T12:17:39.141Z,954.03
2017-02-26T12:18:39.693Z,954.01
2017-02-26T12:19:40.150Z,954.03
2017-02-26T12:20:50.817Z,954.04
2017-02-26T12:21:47.507Z,954.12
2017-02-26T12:22:48.314Z,954.14
2017-02-26T12:23:51.022Z,954.20
2017-02-26T12:24:54.022Z,954.17
2017-02-26T12:25:40.259Z,954.10
2017-02-26T12:26:47.027Z,954.12
2017-02-26T12:27:48.877Z,954.16
2017-02-26T12:28:40.472Z,954.16
2017-02-26T12:29:44.048Z,954.20
2017-02-26T12:30:39.734Z,954.10
2017-02-26T12:32:01.001Z,954.12